hwlogo.jpg (8581 bytes)
Home Your Weather Products Services Weather On Your Site Contact
HW Version Logo
Weather Info
Your Weather (Options)
Canadian Weather
International Weather
Enter your " Place, State", US Zip Code or ICAO:  
Forecast Information Radar Information
Taloyoak, Nunavut, Canada  Lat: 69.55N, Lon: 93.58W
ICAO Used: CYYH
Current Conditions
Updated: 1:00 AM CST MON FEB 19 2018
Sun & Moon Information
Mostly Clear
Mostly Clear
Temp: -36°C
Humidity: 59%
Wind Speed: N 8 MPH
Barometer: 1017 mb
Dewpoint: -41°C
Heat Index: -36°C
Wind Chill: -47°C
Civil Twilight: 7:27 AM CST Moon Phase:
Waxing Crescent Moon
Sunrise: 8:33 AM CST
Sunset: 4:24 PM CST
Civil Twilight: 5:29 PM CST
Forecast for Taloyoak, NU:
(Forecast based on TAF for )
0042 AM CST MON FEB 19 2018
  
OVERNIGHT MORNING AFTERNOON
Partly
Cloudy
Partly
Cloudy
Partly
Cloudy
ZoneCast:
Dated: 0042 AM CST MON FEB 19 2018
Overnight...Partly cloudy with winds from the north at 9 mph.

Morning...Partly cloudy with winds from the north at 9 mph.

Afternoon...Partly cloudy with winds from the north at 9 mph.

Original Encoded TAF:
Dated: 0042 AM CST MON FEB 19 2018
2018/02/19 06:42
TAF CYYH 190538Z 1906/1918 01008KT P6SM FEW100 
      RMK NXT FCST BY 191200Z